Time;durP1;ratioP1;P1;durP2;ratioP2;P2;SDS_P1;SDS_P2;PMS_P1;PMS_P2;Temp;Humidity;BMP_temperature;BMP_pressure;BME280_temperature;BME280_humidity;BME280_pressure;Samples;Min_cycle;Max_cycle;Signal;HPM_P1;HPM_P2
2023/02/20 00:05:26;;;;;;;;;23.00;18.50;;;;;11.61;59.56;102251.47;6334150;22;45953;-73
2023/02/20 00:07:51;;;;;;;;;20.75;18.25;;;;;11.53;60.05;102237.03;6333421;22;46161;-74
2023/02/20 00:10:18;;;;;;;;;22.25;18.75;;;;;11.54;59.94;102234.34;6334487;22;45576;-75
2023/02/20 00:12:44;;;;;;;;;35.00;31.25;;;;;11.57;59.79;102238.59;6305714;22;45955;-74
2023/02/20 00:15:13;;;;;;;;;25.75;19.50;;;;;11.49;59.74;102220.59;6305569;22;48521;-74
2023/02/20 00:21:00;;;;;;;;;21.75;20.25;;;;;11.57;59.75;102233.34;6334814;22;45585;-75
2023/02/20 00:23:31;;;;;;;;;22.50;17.50;;;;;11.36;59.92;102199.34;6334422;22;45448;-75
2023/02/20 00:25:56;;;;;;;;;22.25;20.25;;;;;11.48;59.91;102216.28;6334216;22;46254;-73
2023/02/20 00:28:24;;;;;;;;;22.25;18.75;;;;;11.36;59.74;102198.50;6333748;22;45997;-75
2023/02/20 00:30:50;;;;;;;;;18.75;18.00;;;;;11.34;59.95;102184.59;6333363;22;45657;-74
2023/02/20 00:33:15;;;;;;;;;18.75;17.00;;;;;11.45;60.13;102208.53;6332064;22;45490;-74
2023/02/20 00:35:43;;;;;;;;;19.50;17.00;;;;;11.34;60.22;102180.19;6333172;22;47155;-75
2023/02/20 00:38:08;;;;;;;;;15.75;13.75;;;;;11.51;60.15;102210.84;6334049;22;45690;-74
2023/02/20 00:40:36;;;;;;;;;16.00;15.00;;;;;11.18;60.07;102162.66;6333433;22;45426;-75
2023/02/20 00:43:02;;;;;;;;;19.75;17.50;;;;;11.48;60.05;102231.16;6334297;22;45581;-75
2023/02/20 00:45:27;;;;;;;;;17.50;16.25;;;;;11.35;60.13;102202.88;6333165;22;46380;-74
2023/02/20 00:47:53;;;;;;;;;19.50;14.75;;;;;11.42;60.23;102215.72;6333851;22;45777;-74
2023/02/20 00:50:18;;;;;;;;;16.50;14.50;;;;;11.44;60.21;102214.72;6334047;22;45525;-74
2023/02/20 00:52:44;;;;;;;;;18.50;15.25;;;;;11.28;60.26;102190.97;6335381;22;45493;-74
2023/02/20 00:55:10;;;;;;;;;17.00;14.00;;;;;11.38;60.12;102217.66;6334282;22;47028;-74
2023/02/20 00:57:36;;;;;;;;;18.25;16.50;;;;;11.33;60.31;102207.38;6335286;22;45462;-76
2023/02/20 01:00:01;;;;;;;;;22.50;17.50;;;;;11.34;60.39;102211.69;6334092;22;45473;-74
2023/02/20 01:02:27;;;;;;;;;17.00;15.00;;;;;11.30;60.43;102210.13;6334431;22;45681;-75
2023/02/20 01:04:52;;;;;;;;;18.50;16.75;;;;;11.28;60.44;102209.34;6335026;22;46205;-75
2023/02/20 01:07:18;;;;;;;;;14.25;12.75;;;;;11.21;60.47;102183.50;6335320;22;45808;-74
2023/02/20 01:09:43;;;;;;;;;14.75;13.00;;;;;11.25;60.49;102204.25;6335267;22;45427;-74
2023/02/20 01:12:08;;;;;;;;;18.25;13.25;;;;;11.20;60.58;102205.41;6335362;22;45399;-75
2023/02/20 01:14:34;;;;;;;;;15.00;12.00;;;;;11.23;60.52;102206.09;6306300;22;47741;-74
2023/02/20 01:17:02;;;;;;;;;14.75;13.00;;;;;11.22;60.61;102200.94;6334336;22;45490;-75
2023/02/20 01:19:28;;;;;;;;;14.00;12.75;;;;;11.16;60.22;102193.38;6335076;22;45552;-74
2023/02/20 01:21:53;;;;;;;;;14.50;12.00;;;;;11.11;60.56;102185.72;6335273;22;45535;-76
2023/02/20 01:24:19;;;;;;;;;9.00;9.00;;;;;11.17;60.81;102201.19;6335056;22;46095;-74
2023/02/20 01:26:47;;;;;;;;;12.00;9.00;;;;;11.04;60.71;102192.19;6334278;22;47264;-75
2023/02/20 01:29:14;;;;;;;;;12.00;6.25;;;;;11.09;60.88;102205.06;6335125;22;45368;-73
2023/02/20 01:31:39;;;;;;;;;13.50;9.75;;;;;11.08;61.00;102208.59;6335265;22;45458;-75
2023/02/20 01:34:07;;;;;;;;;11.00;9.00;;;;;11.03;61.15;102200.97;6335061;22;45471;-75
2023/02/20 01:36:33;;;;;;;;;9.00;8.50;;;;;10.95;60.94;102197.88;6334328;22;46130;-75
2023/02/20 01:38:58;;;;;;;;;13.75;10.75;;;;;10.99;60.67;102206.44;6335118;22;45559;-74
2023/02/20 01:41:26;;;;;;;;;11.25;9.50;;;;;10.88;61.00;102180.72;6334521;22;45539;-75
2023/02/20 01:43:57;;;;;;;;;13.00;12.25;;;;;11.00;61.01;102205.50;6332743;22;48417;-75
2023/02/20 01:46:26;;;;;;;;;9.00;7.75;;;;;10.97;61.11;102196.00;6334295;22;45702;-75
2023/02/20 01:53:04;;;;;;;;;11.00;9.00;;;;;10.94;61.31;102210.13;6332568;22;45653;-75
2023/02/20 01:55:36;;;;;;;;;13.50;10.25;;;;;10.72;61.08;102177.09;6333052;22;47435;-76
2023/02/20 01:58:13;;;;;;;;;11.50;9.25;;;;;10.91;61.26;102212.88;6306886;22;46307;-74
2023/02/20 02:00:39;;;;;;;;;9.00;8.00;;;;;10.86;61.31;102217.47;6308531;22;45482;-75
2023/02/20 02:06:28;;;;;;;;;11.25;11.00;;;;;10.86;61.25;102227.97;6334858;22;46006;-74
2023/02/20 02:08:57;;;;;;;;;10.25;8.75;;;;;10.81;61.32;102216.84;6306599;22;47141;-74
2023/02/20 02:11:26;;;;;;;;;10.00;9.50;;;;;10.86;61.33;102227.97;6307586;22;45549;-74
2023/02/20 02:13:52;;;;;;;;;11.00;8.50;;;;;10.79;61.79;102205.59;6335560;22;45747;-75
2023/02/20 02:16:23;;;;;;;;;10.00;9.00;;;;;10.83;61.66;102208.91;6306786;22;46576;-76
2023/02/20 02:22:20;;;;;;;;;9.75;8.00;;;;;10.77;61.90;102199.56;6334910;22;45752;-73
2023/02/20 02:25:01;;;;;;;;;8.00;7.25;;;;;10.74;61.94;102191.81;6334980;22;45381;-74
2023/02/20 02:27:58;;;;;;;;;6.50;6.50;;;;;10.73;62.04;102189.31;6335595;22;45610;-75
2023/02/20 02:30:40;;;;;;;;;9.25;8.00;;;;;10.68;61.97;102178.19;6335564;22;46189;-75
2023/02/20 02:33:30;;;;;;;;;8.00;7.00;;;;;10.69;62.01;102190.38;6334993;22;45532;-75
2023/02/20 02:36:13;;;;;;;;;7.75;7.50;;;;;10.69;62.09;102185.13;6306761;22;45836;-74
2023/02/20 02:39:16;;;;;;;;;11.00;8.00;;;;;10.69;61.82;102175.47;6334716;22;46551;-74
2023/02/20 02:41:54;;;;;;;;;12.00;9.75;;;;;10.68;62.17;102180.81;6334066;22;47032;-75
2023/02/20 02:44:38;;;;;;;;;7.50;6.00;;;;;10.67;62.19;102179.09;6334787;22;45845;-75
2023/02/20 02:50:35;;;;;;;;;9.50;9.25;;;;;10.57;62.29;102156.84;6334515;22;46034;-75
2023/02/20 02:53:12;;;;;;;;;11.50;9.00;;;;;10.58;62.40;102163.81;6305838;22;46163;-75
2023/02/20 02:55:39;;;;;;;;;10.00;10.00;;;;;10.54;62.62;102160.44;6334039;22;45470;-75
2023/02/20 02:58:11;;;;;;;;;10.00;9.25;;;;;10.51;62.50;102160.59;6334085;22;45909;-75
2023/02/20 03:00:46;;;;;;;;;11.25;10.00;;;;;10.47;62.67;102157.25;6333872;22;46118;-75
2023/02/20 03:06:38;;;;;;;;;11.00;9.75;;;;;10.37;62.56;102149.88;6334511;22;45531;-75
2023/02/20 03:09:12;;;;;;;;;11.00;8.50;;;;;10.32;62.63;102152.72;6334218;22;45678;-74
2023/02/20 03:11:41;;;;;;;;;10.00;7.75;;;;;10.28;62.85;102153.78;6334580;22;46398;-73
2023/02/20 03:23:46;;;;;;;;;12.50;10.50;;;;;9.99;63.70;102149.78;6177299;22;45689;-76
2023/02/20 03:26:18;;;;;;;;;12.75;10.75;;;;;9.93;63.78;102142.22;6177004;23;46139;-74
2023/02/20 03:28:54;;;;;;;;;13.50;10.00;;;;;9.86;63.60;102132.94;6176915;23;45772;-74
2023/02/20 03:31:32;;;;;;;;;10.25;10.25;;;;;9.84;63.72;102136.53;6177525;23;45485;-73
2023/02/20 03:46:14;;;;;;;;;12.75;11.25;;;;;9.72;63.76;102096.03;5129302;27;45602;-73
2023/02/20 03:48:50;;;;;;;;;12.50;10.00;;;;;9.81;63.55;102107.88;5107022;27;45952;-74
2023/02/20 03:54:02;;;;;;;;;11.00;10.00;;;;;9.79;63.53;102107.94;5107706;27;45572;-75
2023/02/20 03:56:36;;;;;;;;;10.75;9.75;;;;;9.79;63.94;102097.47;5108864;27;46071;-74
2023/02/20 03:59:11;;;;;;;;;8.50;8.50;;;;;9.80;63.91;102107.03;5102811;27;45805;-73
2023/02/20 04:01:40;;;;;;;;;13.75;11.00;;;;;9.74;64.20;102109.06;5108208;27;45579;-75
2023/02/20 04:04:11;;;;;;;;;11.50;9.25;;;;;9.74;64.08;102103.81;5107969;27;46626;-76
2023/02/20 04:06:40;;;;;;;;;14.00;11.00;;;;;9.71;64.14;102107.44;5106385;27;46164;-73
2023/02/20 04:09:11;;;;;;;;;11.00;10.25;;;;;9.71;64.11;102096.97;5107251;27;45982;-76
2023/02/20 04:11:46;;;;;;;;;15.25;10.00;;;;;9.68;63.91;102089.25;5099131;27;46100;-75
2023/02/20 04:14:14;;;;;;;;;11.50;10.00;;;;;9.71;64.20;102093.50;5108392;27;46452;-73
2023/02/20 04:16:46;;;;;;;;;7.50;7.50;;;;;9.64;64.59;102088.53;5105251;27;47156;-74
2023/02/20 04:19:12;;;;;;;;;10.75;9.50;;;;;9.60;64.72;102084.34;5107759;27;45890;-74
2023/02/20 04:21:55;;;;;;;;;10.75;10.50;;;;;9.64;64.87;102098.16;5107766;27;45600;-74
2023/02/20 04:24:28;;;;;;;;;11.25;8.50;;;;;9.56;64.87;102088.00;5107786;27;46571;-73
2023/02/20 04:26:53;;;;;;;;;10.00;9.75;;;;;9.60;64.99;102099.22;5104654;27;47051;-74
2023/02/20 04:29:19;;;;;;;;;13.50;11.25;;;;;9.60;65.02;102107.06;5106273;27;45920;-74
2023/02/20 04:31:45;;;;;;;;;13.00;10.75;;;;;9.57;65.04;102096.69;5107610;27;45901;-73
2023/02/20 04:34:10;;;;;;;;;13.25;12.00;;;;;9.57;64.79;102102.78;5101094;27;48240;-75
2023/02/20 04:36:36;;;;;;;;;12.00;10.00;;;;;9.59;65.23;102108.81;5107605;27;45941;-75
2023/02/20 04:39:02;;;;;;;;;19.75;11.25;;;;;9.56;65.13;102101.09;5099609;27;45674;-75
2023/02/20 04:41:27;;;;;;;;;12.00;11.75;;;;;9.59;65.20;102103.59;5107970;27;45700;-75
2023/02/20 04:44:30;;;;;;;;;10.00;10.00;;;;;9.59;65.27;102098.34;5104868;27;46260;-74
2023/02/20 04:46:40;;;;;;;;;16.00;12.50;;;;;9.54;65.61;102084.63;5103573;27;45809;-75
2023/02/20 04:49:16;;;;;;;;;11.75;11.00;;;;;9.51;65.62;102102.19;5103083;27;45817;-73
2023/02/20 04:51:42;;;;;;;;;13.50;10.50;;;;;9.42;65.89;102090.38;5093315;27;45936;-75
2023/02/20 04:54:07;;;;;;;;;12.00;11.00;;;;;9.43;65.67;102101.69;5107034;27;46816;-75
2023/02/20 04:56:32;;;;;;;;;2.50;1.00;;;;;9.38;65.85;102094.03;5098585;27;45844;-75
2023/02/20 04:58:57;;;;;;;;;13.25;12.00;;;;;9.39;65.84;102089.66;5093498;27;45660;-73
2023/02/20 05:01:23;;;;;;;;;14.00;10.50;;;;;9.34;66.35;102089.00;5090584;27;45513;-75
2023/02/20 05:03:48;;;;;;;;;11.75;10.50;;;;;9.32;66.27;102093.44;5093208;27;46419;-74
2023/02/20 05:06:13;;;;;;;;;12.50;10.50;;;;;9.27;66.30;102094.50;5093277;27;46644;-73
2023/02/20 05:08:39;;;;;;;;;16.50;12.00;;;;;9.22;66.58;102091.22;5099602;27;45844;-75
2023/02/20 05:11:05;;;;;;;;;15.50;11.25;;;;;9.20;66.46;102100.03;5092331;27;45926;-74
2023/02/20 05:13:30;;;;;;;;;18.75;13.00;;;;;9.18;66.42;102096.63;5093399;27;45682;-75
2023/02/20 05:15:56;;;;;;;;;12.25;10.75;;;;;9.12;66.90;102082.03;5092181;27;47186;-74
2023/02/20 05:18:26;;;;;;;;;10.75;8.75;;;;;9.08;66.74;102087.44;5092012;27;45675;-74
2023/02/20 05:23:35;;;;;;;;;14.75;14.00;;;;;9.03;67.06;102084.19;5092641;27;45658;-76
2023/02/20 05:26:00;;;;;;;;;17.25;14.00;;;;;9.01;67.27;102083.41;5094114;27;46177;-75
2023/02/20 05:28:26;;;;;;;;;15.25;13.00;;;;;8.99;67.31;102082.59;5093380;27;46712;-74
2023/02/20 05:30:51;;;;;;;;;16.75;11.75;;;;;8.93;67.07;102073.25;5093833;27;45785;-75
2023/02/20 05:33:17;;;;;;;;;14.25;11.75;;;;;8.95;67.45;102076.66;5092787;27;45603;-75
2023/02/20 05:35:42;;;;;;;;;16.75;11.75;;;;;8.97;67.63;102076.56;5089146;27;47146;-74
2023/02/20 05:38:07;;;;;;;;;20.25;14.50;;;;;8.95;67.33;102067.97;5092340;27;45785;-75
2023/02/20 05:40:33;;;;;;;;;16.75;12.50;;;;;8.90;67.72;102062.94;5093702;27;45872;-75
2023/02/20 05:42:59;;;;;;;;;16.75;14.75;;;;;8.94;67.46;102071.50;5092396;27;45692;-75
2023/02/20 05:45:24;;;;;;;;;14.75;14.00;;;;;8.89;67.61;102065.59;5093197;27;47091;-75
2023/02/20 05:47:49;;;;;;;;;11.00;10.50;;;;;8.88;67.58;102067.38;5092578;27;45733;-74
2023/02/20 05:50:15;;;;;;;;;16.00;14.25;;;;;8.80;67.46;102059.81;5080021;27;45595;-74
2023/02/20 05:52:40;;;;;;;;;16.50;11.00;;;;;8.78;67.53;102056.44;5087338;27;46480;-74
2023/02/20 05:55:06;;;;;;;;;13.25;11.25;;;;;8.89;67.54;102070.81;5092818;27;46133;-76
2023/02/20 05:57:32;;;;;;;;;18.75;14.75;;;;;8.88;67.62;102066.50;5091326;27;45895;-76
2023/02/20 05:59:57;;;;;;;;;16.50;14.00;;;;;8.89;67.54;102063.84;5091944;27;46043;-75
2023/02/20 06:02:22;;;;;;;;;19.00;14.25;;;;;8.90;67.33;102069.91;5092523;27;47169;-75
2023/02/20 06:04:48;;;;;;;;;12.50;11.00;;;;;8.88;67.41;102063.91;5092179;27;47299;-76
2023/02/20 06:07:14;;;;;;;;;17.00;13.00;;;;;8.92;67.39;102068.94;5091318;27;45862;-75
2023/02/20 06:09:43;;;;;;;;;13.00;12.25;;;;;8.97;67.07;102068.75;5087321;27;46108;-76
2023/02/20 06:12:09;;;;;;;;;18.00;14.00;;;;;8.98;67.37;102071.28;5092142;27;47052;-74
2023/02/20 06:14:34;;;;;;;;;13.00;10.75;;;;;8.99;67.36;102075.63;5092035;27;45972;-76
2023/02/20 06:17:00;;;;;;;;;18.25;15.50;;;;;9.01;67.27;102068.56;5088675;27;46094;-75
2023/02/20 06:19:25;;;;;;;;;19.50;11.75;;;;;9.02;67.27;102070.25;5092335;27;45744;-75
2023/02/20 06:21:52;;;;;;;;;11.75;10.00;;;;;9.00;67.24;102064.25;5091955;27;47378;-75
2023/02/20 06:24:18;;;;;;;;;11.00;11.00;;;;;9.05;67.20;102070.16;5103952;27;48425;-76
2023/02/20 06:26:44;;;;;;;;;14.50;13.50;;;;;9.07;67.11;102067.47;5087945;27;45815;-76
2023/02/20 06:29:10;;;;;;;;;14.75;10.50;;;;;9.08;67.00;102070.00;5092190;27;46012;-75
2023/02/20 06:31:36;;;;;;;;;15.25;11.00;;;;;9.07;66.94;102068.28;5091338;27;46061;-73
2023/02/20 06:34:02;;;;;;;;;16.50;13.25;;;;;9.10;67.17;102070.81;5091513;27;46258;-75
2023/02/20 06:36:31;;;;;;;;;14.00;11.50;;;;;9.15;66.97;102075.84;5092018;27;46679;-73
2023/02/20 06:38:58;;;;;;;;;11.00;10.00;;;;;9.16;67.17;102070.56;5092079;27;45960;-74
2023/02/20 06:41:25;;;;;;;;;13.50;11.75;;;;;9.17;67.12;102077.47;5091661;27;46627;-75
2023/02/20 06:43:50;;;;;;;;;15.00;11.75;;;;;9.13;67.17;102062.81;5085067;27;47920;-74
2023/02/20 06:46:15;;;;;;;;;13.00;10.00;;;;;9.22;67.00;102075.53;5101267;27;46068;-73
2023/02/20 06:48:46;;;;;;;;;10.25;10.00;;;;;9.22;67.09;102072.91;5090461;27;45975;-74
2023/02/20 06:51:12;;;;;;;;;10.50;10.50;;;;;9.20;67.10;102066.03;5084799;27;45984;-74
2023/02/20 06:53:41;;;;;;;;;16.50;13.00;;;;;9.28;67.02;102082.25;5089577;27;46080;-75
2023/02/20 06:56:10;;;;;;;;;12.25;11.75;;;;;9.31;66.90;102083.88;5088376;27;45611;-74
2023/02/20 06:58:41;;;;;;;;;17.50;14.25;;;;;9.27;67.08;102072.72;5090990;27;45862;-75
2023/02/20 07:01:07;;;;;;;;;15.25;11.00;;;;;9.33;66.84;102071.59;5103329;27;47874;-75
2023/02/20 07:03:36;;;;;;;;;17.25;14.00;;;;;9.36;66.91;102072.31;5090284;27;46074;-74
2023/02/20 07:06:07;;;;;;;;;12.25;10.75;;;;;9.39;66.75;102073.97;5091661;27;45715;-74
2023/02/20 07:08:36;;;;;;;;;15.75;15.00;;;;;9.41;66.63;102075.59;5091227;27;45683;-73
2023/02/20 07:11:10;;;;;;;;;16.50;12.75;;;;;9.15;66.57;102028.78;5090676;27;45890;-75
2023/02/20 07:13:36;;;;;;;;;20.50;17.00;;;;;9.44;66.42;102072.84;5089750;27;46299;-74
2023/02/20 07:16:01;;;;;;;;;18.75;16.25;;;;;9.48;66.55;102081.41;5090291;27;45727;-75
2023/02/20 07:18:27;;;;;;;;;21.00;17.25;;;;;9.45;66.55;102081.53;5088937;27;45813;-75
2023/02/20 07:20:55;;;;;;;;;17.50;16.00;;;;;9.40;66.28;102075.63;5089667;27;48664;-73
2023/02/20 07:23:21;;;;;;;;;19.75;17.75;;;;;9.52;66.33;102094.28;5089980;27;48558;-74
2023/02/20 07:25:48;;;;;;;;;21.25;16.50;;;;;9.57;65.98;102092.31;5092394;27;45712;-76
2023/02/20 07:28:14;;;;;;;;;16.25;14.75;;;;;9.60;66.34;102101.81;5090868;27;45635;-75
2023/02/20 07:30:39;;;;;;;;;17.00;11.75;;;;;9.59;65.97;102094.88;5091345;27;46502;-75
2023/02/20 07:33:05;;;;;;;;;20.00;16.25;;;;;9.55;65.95;102096.78;5084862;27;45763;-73
2023/02/20 07:35:30;;;;;;;;;20.50;19.50;;;;;9.56;65.69;102097.63;5087639;27;45751;-73
2023/02/20 07:37:55;;;;;;;;;17.25;16.00;;;;;9.63;65.71;102113.00;5091087;27;46044;-74
2023/02/20 07:40:21;;;;;;;;;7.75;5.50;;;;;9.57;65.81;102094.94;5091419;27;46292;-76
2023/02/20 07:42:46;;;;;;;;;23.00;17.50;;;;;9.62;65.59;102099.97;5091366;27;46047;-75
2023/02/20 07:45:12;;;;;;;;;19.50;17.50;;;;;9.64;65.46;102104.22;5091226;27;45758;-75
2023/02/20 07:47:37;;;;;;;;;17.50;15.00;;;;;9.67;65.47;102108.47;5091324;27;45727;-74
2023/02/20 07:50:03;;;;;;;;;18.75;16.75;;;;;9.65;65.58;102099.84;5086197;27;46341;-74
2023/02/20 07:52:28;;;;;;;;;16.50;15.50;;;;;9.69;65.52;102111.88;5080610;27;46060;-75
2023/02/20 07:54:54;;;;;;;;;17.25;15.00;;;;;9.69;65.58;102117.13;5090712;27;45796;-74
2023/02/20 07:57:19;;;;;;;;;20.00;17.00;;;;;9.68;65.27;102108.41;5089382;27;46885;-74
2023/02/20 07:59:44;;;;;;;;;16.00;16.00;;;;;9.66;65.47;102106.78;5090440;27;45925;-75
2023/02/20 08:02:10;;;;;;;;;19.75;16.50;;;;;9.69;65.38;102112.75;5090503;27;45647;-75
2023/02/20 08:04:36;;;;;;;;;22.50;19.75;;;;;9.71;65.16;102107.44;5091024;27;45993;-75
2023/02/20 08:07:01;;;;;;;;;20.50;17.00;;;;;9.73;65.40;102116.06;5089723;27;46691;-74
2023/02/20 08:09:27;;;;;;;;;17.00;15.25;;;;;9.76;65.36;102118.56;5089731;27;46064;-76
2023/02/20 08:11:52;;;;;;;;;15.25;14.50;;;;;9.79;65.38;102118.41;5091003;27;47269;-75
2023/02/20 08:14:18;;;;;;;;;16.00;14.25;;;;;9.75;65.47;102105.53;5089723;27;46030;-74
2023/02/20 08:16:43;;;;;;;;;20.50;17.50;;;;;9.81;65.46;102121.81;5090990;27;45625;-75
2023/02/20 08:19:08;;;;;;;;;15.75;15.25;;;;;9.83;65.29;102125.22;5085696;27;46124;-73
2023/02/20 08:21:34;;;;;;;;;22.00;16.25;;;;;9.81;65.50;102116.59;5085788;27;45804;-75
2023/02/20 08:23:59;;;;;;;;;18.75;16.00;;;;;9.84;65.37;102123.44;5087987;27;46155;-73
2023/02/20 08:26:24;;;;;;;;;14.75;12.50;;;;;9.84;65.38;102124.28;5086451;27;45671;-73
2023/02/20 08:28:51;;;;;;;;;19.25;16.25;;;;;9.90;65.31;102124.03;5090106;27;47598;-74
2023/02/20 08:31:17;;;;;;;;;19.50;18.75;;;;;9.94;65.40;102125.59;5090993;27;46546;-75
2023/02/20 08:33:42;;;;;;;;;21.00;17.75;;;;;9.97;65.43;102128.09;5092262;27;45726;-75
2023/02/20 08:36:08;;;;;;;;;19.00;17.00;;;;;10.00;65.46;102127.09;5094030;27;45813;-73
2023/02/20 08:38:37;;;;;;;;;17.50;16.75;;;;;9.98;65.64;102119.31;5091711;27;48375;-74
2023/02/20 08:41:06;;;;;;;;;21.50;18.00;;;;;10.00;65.52;102124.47;5092098;27;46211;-74
2023/02/20 08:43:32;;;;;;;;;22.25;18.75;;;;;9.93;65.67;102115.22;5090665;27;46080;-75
2023/02/20 08:45:58;;;;;;;;;16.00;13.75;;;;;9.95;65.84;102123.81;5094201;27;45593;-75
2023/02/20 08:48:23;;;;;;;;;22.00;19.25;;;;;9.90;65.63;102110.09;5091596;27;46827;-74
2023/02/20 08:50:49;;;;;;;;;21.00;19.50;;;;;9.94;65.86;102116.88;5090115;27;46024;-75
2023/02/20 08:53:14;;;;;;;;;21.50;19.00;;;;;9.98;65.67;102124.56;5090882;27;45862;-73
2023/02/20 08:55:40;;;;;;;;;23.50;18.25;;;;;10.01;66.17;102126.19;5093640;27;46787;-74
2023/02/20 08:58:05;;;;;;;;;16.50;15.75;;;;;9.93;65.99;102108.19;5089811;27;46442;-74
2023/02/20 09:00:31;;;;;;;;;21.75;17.00;;;;;9.93;66.07;102113.41;5089888;27;45679;-75
2023/02/20 09:02:56;;;;;;;;;17.50;16.00;;;;;9.94;66.15;102109.88;5093363;27;45968;-76
2023/02/20 09:05:23;;;;;;;;;16.50;12.50;;;;;9.94;66.24;102106.41;5093627;27;46010;-74
2023/02/20 09:07:48;;;;;;;;;20.25;19.00;;;;;9.99;66.33;102125.38;5093225;27;46328;-73
2023/02/20 09:10:37;;;;;;;;;16.00;14.75;;;;;9.96;66.25;102123.75;5093130;27;45647;-75
2023/02/20 09:13:02;;;;;;;;;14.25;12.25;;;;;9.98;66.68;102121.09;5086169;27;45921;-76
2023/02/20 09:15:30;;;;;;;;;12.75;12.75;;;;;9.87;66.46;102107.63;5092994;27;45954;-75
2023/02/20 09:17:58;;;;;;;;;17.50;15.75;;;;;9.93;66.61;102118.66;5093703;27;46623;-75
2023/02/20 09:20:23;;;;;;;;;17.50;12.00;;;;;9.97;66.60;102122.84;5092065;27;47173;-75
2023/02/20 09:22:50;;;;;;;;;11.00;10.25;;;;;9.99;66.55;102114.91;5092579;27;45995;-75
2023/02/20 09:25:24;;;;;;;;;12.50;11.50;;;;;10.01;66.88;102124.41;5085895;27;45655;-74
2023/02/20 09:27:51;;;;;;;;;12.75;12.00;;;;;9.93;66.83;102108.19;5093017;27;46058;-74
2023/02/20 09:30:19;;;;;;;;;18.00;14.75;;;;;10.05;66.74;102115.50;5093186;27;46994;-75
2023/02/20 09:32:46;;;;;;;;;17.25;12.25;;;;;10.09;67.02;102118.84;5082483;27;46419;-74
2023/02/20 09:35:20;;;;;;;;;13.00;11.00;;;;;10.07;66.80;102108.44;5091648;27;46378;-75
2023/02/20 09:37:46;;;;;;;;;12.00;11.25;;;;;10.14;66.88;102116.00;5091794;27;46552;-75
2023/02/20 09:40:12;;;;;;;;;19.00;13.50;;;;;10.15;66.91;102107.25;5093566;27;46016;-74
2023/02/20 09:43:14;;;;;;;;;14.00;12.50;;;;;10.16;66.74;102109.81;5108549;27;46421;-75
2023/02/20 09:45:51;;;;;;;;;16.25;13.75;;;;;10.05;66.69;102094.53;5093372;27;45663;-75
2023/02/20 09:48:28;;;;;;;;;14.00;13.75;;;;;10.05;67.05;102089.31;5092677;27;45953;-75
2023/02/20 09:50:58;;;;;;;;;16.25;12.00;;;;;10.18;66.73;102102.75;5057487;27;46325;-75
2023/02/20 09:53:39;;;;;;;;;17.00;15.00;;;;;10.15;66.95;102097.59;5091471;27;45812;-75
2023/02/20 09:56:13;;;;;;;;;21.50;17.75;;;;;10.29;66.85;102110.09;5092801;27;45781;-74
2023/02/20 09:58:59;;;;;;;;;15.50;12.00;;;;;10.33;66.61;102109.91;5092398;27;46478;-75
2023/02/20 10:01:25;;;;;;;;;15.00;12.25;;;;;10.39;66.63;102109.63;5092457;27;46725;-74
2023/02/20 10:04:02;;;;;;;;;16.00;14.25;;;;;10.41;66.67;102109.56;5092808;27;45689;-76
2023/02/20 10:06:31;;;;;;;;;16.75;12.75;;;;;10.46;66.56;102110.19;5088518;27;45654;-76
2023/02/20 10:08:56;;;;;;;;;17.50;13.00;;;;;10.49;66.73;102102.16;5090908;27;46669;-74
2023/02/20 10:11:35;;;;;;;;;14.75;12.00;;;;;10.46;66.45;102084.00;5090651;27;47135;-74
2023/02/20 10:14:09;;;;;;;;;13.50;12.50;;;;;10.61;66.47;102104.22;5092245;27;46015;-76
2023/02/20 10:17:16;;;;;;;;;11.25;11.00;;;;;10.64;66.33;102088.34;5092531;27;45727;-76
2023/02/20 10:19:54;;;;;;;;;19.00;17.75;;;;;10.74;66.08;102091.41;5009232;28;46439;-74
2023/02/20 10:22:38;;;;;;;;;22.50;19.25;;;;;10.78;66.14;102092.94;4990160;28;48073;-75
2023/02/20 10:25:33;;;;;;;;;21.25;19.00;;;;;10.86;65.79;102101.28;5008640;28;45928;-74
2023/02/20 10:28:09;;;;;;;;;22.75;20.00;;;;;10.90;65.94;102097.59;5005628;28;45648;-75
2023/02/20 10:30:51;;;;;;;;;24.75;20.50;;;;;10.92;65.70;102104.44;5006634;28;46475;-74
2023/02/20 10:33:35;;;;;;;;;23.50;19.00;;;;;10.96;65.49;102099.91;5008136;28;46439;-73
2023/02/20 10:36:18;;;;;;;;;16.75;16.75;;;;;10.98;65.43;102103.31;5009427;28;45936;-75
2023/02/20 10:38:53;;;;;;;;;22.75;18.75;;;;;11.02;65.41;102104.84;5008700;28;46127;-75
2023/02/20 10:41:39;;;;;;;;;24.00;21.00;;;;;11.06;65.13;102106.41;5009064;28;46451;-74
2023/02/20 10:44:12;;;;;;;;;23.00;20.75;;;;;11.05;65.33;102090.75;5008037;28;46342;-75
2023/02/20 10:46:48;;;;;;;;;24.50;21.00;;;;;11.13;65.26;102109.56;5008706;28;46268;-76
2023/02/20 10:49:29;;;;;;;;;23.75;17.50;;;;;11.16;65.08;102104.19;5008689;28;45904;-75
2023/02/20 10:52:03;;;;;;;;;18.25;17.75;;;;;11.18;64.74;102113.66;5008557;28;46684;-75
2023/02/20 10:54:55;;;;;;;;;24.25;20.50;;;;;11.13;64.66;102096.44;5007324;28;46116;-75
2023/02/20 10:57:38;;;;;;;;;20.25;18.00;;;;;11.25;64.67;102108.97;5085486;27;45891;-75
2023/02/20 11:00:31;;;;;;;;;21.75;18.75;;;;;11.23;64.70;102111.66;5084084;27;45699;-76
2023/02/20 11:03:07;;;;;;;;;23.50;18.00;;;;;11.23;64.84;102109.03;5091347;27;46567;-74
2023/02/20 11:05:39;;;;;;;;;24.50;20.25;;;;;11.27;64.79;102104.50;5091443;27;46523;-75
2023/02/20 11:08:06;;;;;;;;;21.50;19.75;;;;;11.26;64.55;102103.66;5091025;27;46138;-75
2023/02/20 11:10:34;;;;;;;;;18.25;15.50;;;;;11.27;64.49;102099.25;5091422;27;45936;-74
2023/02/20 11:13:01;;;;;;;;;27.25;20.25;;;;;11.25;64.48;102094.06;5083088;27;46637;-75
2023/02/20 11:15:31;;;;;;;;;26.00;22.75;;;;;11.30;64.44;102093.84;5096757;27;46328;-75
2023/02/20 11:18:01;;;;;;;;;24.25;19.00;;;;;11.33;64.30;102089.31;5091572;27;45825;-75
2023/02/20 11:20:34;;;;;;;;;18.75;17.00;;;;;11.34;64.36;102083.09;5091037;27;46155;-76
2023/02/20 11:23:00;;;;;;;;;21.50;20.00;;;;;11.33;64.03;102091.09;5090033;27;46107;-75
2023/02/20 11:25:33;;;;;;;;;20.75;18.00;;;;;11.35;64.22;102084.81;5091343;27;46153;-75
2023/02/20 11:28:16;;;;;;;;;21.50;19.75;;;;;11.36;64.25;102078.66;5091207;27;46161;-75
2023/02/20 11:30:45;;;;;;;;;18.25;17.50;;;;;11.37;64.33;102074.25;5090916;27;45988;-76
2023/02/20 11:33:13;;;;;;;;;22.00;18.00;;;;;11.41;64.30;102072.31;5086327;27;45660;-75
2023/02/20 11:35:40;;;;;;;;;21.25;19.00;;;;;11.39;64.35;102068.94;5086862;27;46344;-74
2023/02/20 11:38:17;;;;;;;;;25.50;20.25;;;;;11.42;64.36;102074.84;5090761;27;46071;-74
2023/02/20 11:41:02;;;;;;;;;21.25;17.75;;;;;11.41;64.50;102061.81;5091011;27;46160;-74
2023/02/20 11:43:33;;;;;;;;;23.00;20.00;;;;;11.46;64.19;102067.66;5088306;27;47136;-74
2023/02/20 11:46:21;;;;;;;;;17.00;17.00;;;;;11.46;64.21;102063.28;5091417;27;46246;-74
2023/02/20 11:48:55;;;;;;;;;22.75;18.25;;;;;11.46;64.22;102058.03;5087087;27;46099;-75
2023/02/20 11:51:39;;;;;;;;;18.50;18.00;;;;;11.45;63.96;102052.84;5076054;27;45965;-75
2023/02/20 11:54:28;;;;;;;;;22.00;19.00;;;;;11.44;64.11;102057.28;5090261;27;47583;-74
2023/02/20 11:57:04;;;;;;;;;21.25;19.00;;;;;11.43;64.00;102045.06;5097661;27;46168;-75
2023/02/20 11:59:35;;;;;;;;;23.25;21.25;;;;;11.47;64.05;102043.13;5091167;27;45903;-75
2023/02/20 12:02:16;;;;;;;;;16.50;16.50;;;;;11.49;63.82;102044.75;5090749;27;45905;-75
2023/02/20 12:05:12;;;;;;;;;19.50;19.00;;;;;11.44;63.81;102030.19;5090806;27;46555;-74
2023/02/20 12:08:18;;;;;;;;;20.00;18.25;;;;;11.52;63.62;102034.09;5089488;27;46862;-75
2023/02/20 12:10:51;;;;;;;;;19.50;18.25;;;;;11.45;63.63;102018.72;4994006;28;45886;-75
2023/02/20 12:13:16;;;;;;;;;29.75;20.75;;;;;11.28;63.42;101993.38;5011391;28;46010;-75
2023/02/20 12:15:56;;;;;;;;;21.50;20.50;;;;;11.25;63.59;101997.00;5011000;28;48455;-74
2023/02/20 12:18:35;;;;;;;;;19.00;18.00;;;;;11.44;63.50;102023.16;5010839;28;45822;-74
2023/02/20 12:21:16;;;;;;;;;22.75;20.00;;;;;11.42;63.61;102011.03;5011217;28;45955;-75